sensor_id;sensor_type;location;lat;lon;timestamp;P1;durP1;ratioP1;P2;durP2;ratioP2
10699;SDS011;5401;41.986;21.452;2023-02-15T00:00:07;30.20;;;19.77;;
10699;SDS011;5401;41.986;21.452;2023-02-15T00:02:37;35.47;;;22.40;;
10699;SDS011;5401;41.986;21.452;2023-02-15T00:05:05;27.60;;;17.60;;
10699;SDS011;5401;41.986;21.452;2023-02-15T00:07:33;22.83;;;15.83;;
10699;SDS011;5401;41.986;21.452;2023-02-15T00:10:02;32.67;;;17.63;;
10699;SDS011;5401;41.986;21.452;2023-02-15T00:12:32;28.00;;;19.20;;
10699;SDS011;5401;41.986;21.452;2023-02-15T00:14:59;31.87;;;21.97;;
10699;SDS011;5401;41.986;21.452;2023-02-15T00:17:27;39.27;;;24.87;;
10699;SDS011;5401;41.986;21.452;2023-02-15T00:19:56;39.70;;;24.30;;
10699;SDS011;5401;41.986;21.452;2023-02-15T00:22:23;39.17;;;26.63;;
10699;SDS011;5401;41.986;21.452;2023-02-15T00:24:52;40.27;;;26.27;;
10699;SDS011;5401;41.986;21.452;2023-02-15T00:27:19;41.67;;;29.07;;
10699;SDS011;5401;41.986;21.452;2023-02-15T00:29:48;42.87;;;25.80;;
10699;SDS011;5401;41.986;21.452;2023-02-15T00:32:16;55.03;;;31.43;;
10699;SDS011;5401;41.986;21.452;2023-02-15T00:34:43;46.97;;;31.33;;
10699;SDS011;5401;41.986;21.452;2023-02-15T00:37:11;53.23;;;33.47;;
10699;SDS011;5401;41.986;21.452;2023-02-15T00:39:38;55.87;;;33.57;;
10699;SDS011;5401;41.986;21.452;2023-02-15T00:42:06;64.63;;;38.10;;
10699;SDS011;5401;41.986;21.452;2023-02-15T00:44:33;58.63;;;36.10;;
10699;SDS011;5401;41.986;21.452;2023-02-15T00:47:02;54.17;;;32.73;;
10699;SDS011;5401;41.986;21.452;2023-02-15T00:49:30;55.50;;;34.17;;
10699;SDS011;5401;41.986;21.452;2023-02-15T00:51:58;57.20;;;35.67;;
10699;SDS011;5401;41.986;21.452;2023-02-15T00:54:25;57.20;;;34.60;;
10699;SDS011;5401;41.986;21.452;2023-02-15T00:56:53;49.33;;;32.10;;
10699;SDS011;5401;41.986;21.452;2023-02-15T00:59:20;50.70;;;32.63;;
10699;SDS011;5401;41.986;21.452;2023-02-15T01:01:48;45.80;;;28.87;;
10699;SDS011;5401;41.986;21.452;2023-02-15T01:04:17;60.03;;;36.17;;
10699;SDS011;5401;41.986;21.452;2023-02-15T01:06:44;61.47;;;36.20;;
10699;SDS011;5401;41.986;21.452;2023-02-15T01:09:12;57.27;;;34.80;;
10699;SDS011;5401;41.986;21.452;2023-02-15T01:11:39;54.87;;;33.40;;
10699;SDS011;5401;41.986;21.452;2023-02-15T01:14:13;61.03;;;36.63;;
10699;SDS011;5401;41.986;21.452;2023-02-15T01:16:42;62.67;;;36.87;;
10699;SDS011;5401;41.986;21.452;2023-02-15T01:19:09;53.83;;;34.00;;
10699;SDS011;5401;41.986;21.452;2023-02-15T01:21:38;49.93;;;30.07;;
10699;SDS011;5401;41.986;21.452;2023-02-15T01:24:10;63.53;;;40.00;;
10699;SDS011;5401;41.986;21.452;2023-02-15T01:26:39;62.77;;;35.90;;
10699;SDS011;5401;41.986;21.452;2023-02-15T01:29:07;62.30;;;36.03;;
10699;SDS011;5401;41.986;21.452;2023-02-15T01:31:34;62.93;;;37.47;;
10699;SDS011;5401;41.986;21.452;2023-02-15T01:34:04;65.77;;;37.63;;
10699;SDS011;5401;41.986;21.452;2023-02-15T01:36:33;58.50;;;36.13;;
10699;SDS011;5401;41.986;21.452;2023-02-15T01:39:02;64.63;;;37.37;;
10699;SDS011;5401;41.986;21.452;2023-02-15T01:41:29;56.33;;;36.37;;
10699;SDS011;5401;41.986;21.452;2023-02-15T01:43:59;57.07;;;34.83;;
10699;SDS011;5401;41.986;21.452;2023-02-15T01:46:28;52.37;;;33.57;;
10699;SDS011;5401;41.986;21.452;2023-02-15T01:49:03;58.07;;;33.43;;
10699;SDS011;5401;41.986;21.452;2023-02-15T01:51:37;47.10;;;30.67;;
10699;SDS011;5401;41.986;21.452;2023-02-15T01:54:12;42.03;;;28.20;;
10699;SDS011;5401;41.986;21.452;2023-02-15T01:56:45;40.73;;;27.60;;
10699;SDS011;5401;41.986;21.452;2023-02-15T01:59:15;46.93;;;29.13;;
10699;SDS011;5401;41.986;21.452;2023-02-15T02:01:46;42.60;;;28.17;;
10699;SDS011;5401;41.986;21.452;2023-02-15T02:04:15;48.30;;;30.47;;
10699;SDS011;5401;41.986;21.452;2023-02-15T02:06:47;54.27;;;33.10;;
10699;SDS011;5401;41.986;21.452;2023-02-15T02:09:20;49.10;;;30.70;;
10699;SDS011;5401;41.986;21.452;2023-02-15T02:11:47;47.70;;;29.57;;
10699;SDS011;5401;41.986;21.452;2023-02-15T02:14:15;53.17;;;34.07;;
10699;SDS011;5401;41.986;21.452;2023-02-15T02:16:45;43.33;;;30.20;;
10699;SDS011;5401;41.986;21.452;2023-02-15T02:19:30;52.63;;;32.97;;
10699;SDS011;5401;41.986;21.452;2023-02-15T02:25:41;52.53;;;32.97;;
10699;SDS011;5401;41.986;21.452;2023-02-15T02:28:40;48.37;;;31.73;;
10699;SDS011;5401;41.986;21.452;2023-02-15T02:31:31;48.90;;;33.40;;
10699;SDS011;5401;41.986;21.452;2023-02-15T02:34:15;44.97;;;30.27;;
10699;SDS011;5401;41.986;21.452;2023-02-15T02:36:49;45.10;;;31.23;;
10699;SDS011;5401;41.986;21.452;2023-02-15T02:39:23;48.20;;;30.13;;
10699;SDS011;5401;41.986;21.452;2023-02-15T02:42:01;53.57;;;33.43;;
10699;SDS011;5401;41.986;21.452;2023-02-15T02:44:34;59.33;;;33.60;;
10699;SDS011;5401;41.986;21.452;2023-02-15T02:47:10;55.63;;;33.17;;
10699;SDS011;5401;41.986;21.452;2023-02-15T02:49:42;65.57;;;34.90;;
10699;SDS011;5401;41.986;21.452;2023-02-15T02:55:03;76.60;;;41.27;;
10699;SDS011;5401;41.986;21.452;2023-02-15T02:57:33;50.83;;;33.00;;
10699;SDS011;5401;41.986;21.452;2023-02-15T03:00:04;51.73;;;34.00;;
10699;SDS011;5401;41.986;21.452;2023-02-15T03:02:35;57.50;;;35.47;;
10699;SDS011;5401;41.986;21.452;2023-02-15T03:05:09;57.53;;;35.33;;
10699;SDS011;5401;41.986;21.452;2023-02-15T03:07:42;58.00;;;36.97;;
10699;SDS011;5401;41.986;21.452;2023-02-15T03:10:13;54.00;;;34.27;;
10699;SDS011;5401;41.986;21.452;2023-02-15T03:12:42;54.67;;;34.53;;
10699;SDS011;5401;41.986;21.452;2023-02-15T03:15:11;53.17;;;33.93;;
10699;SDS011;5401;41.986;21.452;2023-02-15T03:17:43;49.73;;;31.30;;
10699;SDS011;5401;41.986;21.452;2023-02-15T03:20:16;51.83;;;32.47;;
10699;SDS011;5401;41.986;21.452;2023-02-15T03:22:48;57.50;;;34.17;;
10699;SDS011;5401;41.986;21.452;2023-02-15T03:25:20;54.27;;;34.57;;
10699;SDS011;5401;41.986;21.452;2023-02-15T03:27:51;52.70;;;35.53;;
10699;SDS011;5401;41.986;21.452;2023-02-15T03:30:24;51.97;;;34.27;;
10699;SDS011;5401;41.986;21.452;2023-02-15T03:32:54;50.93;;;33.23;;
10699;SDS011;5401;41.986;21.452;2023-02-15T03:35:29;50.30;;;32.13;;
10699;SDS011;5401;41.986;21.452;2023-02-15T03:38:03;52.47;;;32.47;;
10699;SDS011;5401;41.986;21.452;2023-02-15T03:40:36;50.17;;;32.43;;
10699;SDS011;5401;41.986;21.452;2023-02-15T03:43:27;46.83;;;31.83;;
10699;SDS011;5401;41.986;21.452;2023-02-15T03:46:02;44.90;;;29.37;;
10699;SDS011;5401;41.986;21.452;2023-02-15T03:48:34;42.73;;;28.17;;
10699;SDS011;5401;41.986;21.452;2023-02-15T03:51:07;39.83;;;26.93;;
10699;SDS011;5401;41.986;21.452;2023-02-15T03:53:56;37.53;;;24.13;;
10699;SDS011;5401;41.986;21.452;2023-02-15T03:56:25;35.30;;;25.50;;
10699;SDS011;5401;41.986;21.452;2023-02-15T03:58:53;34.07;;;22.77;;
10699;SDS011;5401;41.986;21.452;2023-02-15T04:01:40;38.23;;;24.63;;
10699;SDS011;5401;41.986;21.452;2023-02-15T04:04:30;40.03;;;24.60;;
10699;SDS011;5401;41.986;21.452;2023-02-15T04:07:02;35.90;;;22.43;;
10699;SDS011;5401;41.986;21.452;2023-02-15T04:09:32;35.90;;;22.93;;
10699;SDS011;5401;41.986;21.452;2023-02-15T04:12:16;35.30;;;21.83;;
10699;SDS011;5401;41.986;21.452;2023-02-15T04:14:44;35.20;;;23.67;;
10699;SDS011;5401;41.986;21.452;2023-02-15T04:17:29;38.90;;;25.27;;
10699;SDS011;5401;41.986;21.452;2023-02-15T04:19:56;35.90;;;24.67;;
10699;SDS011;5401;41.986;21.452;2023-02-15T04:22:43;41.57;;;24.37;;
10699;SDS011;5401;41.986;21.452;2023-02-15T04:25:27;35.13;;;23.57;;
10699;SDS011;5401;41.986;21.452;2023-02-15T04:27:55;36.10;;;23.03;;
10699;SDS011;5401;41.986;21.452;2023-02-15T04:30:23;34.50;;;21.60;;
10699;SDS011;5401;41.986;21.452;2023-02-15T04:32:53;38.53;;;24.30;;
10699;SDS011;5401;41.986;21.452;2023-02-15T04:35:21;42.47;;;25.40;;
10699;SDS011;5401;41.986;21.452;2023-02-15T04:37:50;50.07;;;29.40;;
10699;SDS011;5401;41.986;21.452;2023-02-15T04:40:17;40.47;;;26.03;;
10699;SDS011;5401;41.986;21.452;2023-02-15T04:42:46;46.80;;;28.70;;
10699;SDS011;5401;41.986;21.452;2023-02-15T04:45:15;52.97;;;31.63;;
10699;SDS011;5401;41.986;21.452;2023-02-15T04:47:43;47.93;;;30.20;;
10699;SDS011;5401;41.986;21.452;2023-02-15T04:50:11;45.43;;;29.93;;
10699;SDS011;5401;41.986;21.452;2023-02-15T04:52:38;59.47;;;34.77;;
10699;SDS011;5401;41.986;21.452;2023-02-15T04:55:08;50.57;;;30.87;;
10699;SDS011;5401;41.986;21.452;2023-02-15T04:57:35;57.60;;;33.40;;
10699;SDS011;5401;41.986;21.452;2023-02-15T05:00:03;58.30;;;33.57;;
10699;SDS011;5401;41.986;21.452;2023-02-15T05:02:31;56.07;;;32.67;;
10699;SDS011;5401;41.986;21.452;2023-02-15T05:04:58;57.90;;;32.07;;
10699;SDS011;5401;41.986;21.452;2023-02-15T05:07:26;55.53;;;32.67;;
10699;SDS011;5401;41.986;21.452;2023-02-15T05:09:53;52.27;;;32.63;;
10699;SDS011;5401;41.986;21.452;2023-02-15T05:12:22;49.03;;;30.43;;
10699;SDS011;5401;41.986;21.452;2023-02-15T05:14:50;54.17;;;30.27;;
10699;SDS011;5401;41.986;21.452;2023-02-15T05:17:17;57.20;;;32.13;;
10699;SDS011;5401;41.986;21.452;2023-02-15T05:19:45;49.63;;;28.87;;
10699;SDS011;5401;41.986;21.452;2023-02-15T05:22:12;50.23;;;27.23;;
10699;SDS011;5401;41.986;21.452;2023-02-15T05:24:40;47.57;;;28.83;;
10699;SDS011;5401;41.986;21.452;2023-02-15T05:27:25;53.80;;;31.03;;
10699;SDS011;5401;41.986;21.452;2023-02-15T05:30:11;62.43;;;33.53;;
10699;SDS011;5401;41.986;21.452;2023-02-15T05:32:39;55.93;;;31.53;;
10699;SDS011;5401;41.986;21.452;2023-02-15T05:35:07;50.27;;;30.43;;
10699;SDS011;5401;41.986;21.452;2023-02-15T05:37:34;56.20;;;31.47;;
10699;SDS011;5401;41.986;21.452;2023-02-15T05:40:02;48.47;;;30.30;;
10699;SDS011;5401;41.986;21.452;2023-02-15T05:42:31;46.03;;;26.77;;
10699;SDS011;5401;41.986;21.452;2023-02-15T05:44:58;47.37;;;28.40;;
10699;SDS011;5401;41.986;21.452;2023-02-15T05:47:26;52.67;;;29.80;;
10699;SDS011;5401;41.986;21.452;2023-02-15T05:49:53;50.93;;;29.53;;
10699;SDS011;5401;41.986;21.452;2023-02-15T05:52:21;51.33;;;28.47;;
10699;SDS011;5401;41.986;21.452;2023-02-15T05:54:48;50.47;;;29.33;;
10699;SDS011;5401;41.986;21.452;2023-02-15T05:57:16;48.87;;;29.00;;
10699;SDS011;5401;41.986;21.452;2023-02-15T05:59:47;45.20;;;26.67;;
10699;SDS011;5401;41.986;21.452;2023-02-15T06:02:14;63.23;;;34.37;;
10699;SDS011;5401;41.986;21.452;2023-02-15T06:04:42;71.73;;;38.17;;
10699;SDS011;5401;41.986;21.452;2023-02-15T06:07:09;58.17;;;34.13;;
10699;SDS011;5401;41.986;21.452;2023-02-15T06:09:37;59.23;;;34.73;;
10699;SDS011;5401;41.986;21.452;2023-02-15T06:12:04;57.13;;;30.70;;
10699;SDS011;5401;41.986;21.452;2023-02-15T06:14:32;48.67;;;28.50;;
10699;SDS011;5401;41.986;21.452;2023-02-15T06:17:01;46.50;;;28.47;;
10699;SDS011;5401;41.986;21.452;2023-02-15T06:19:29;65.20;;;34.07;;
10699;SDS011;5401;41.986;21.452;2023-02-15T06:21:57;43.80;;;26.90;;
10699;SDS011;5401;41.986;21.452;2023-02-15T06:24:25;47.17;;;26.70;;
10699;SDS011;5401;41.986;21.452;2023-02-15T06:26:52;55.70;;;29.47;;
10699;SDS011;5401;41.986;21.452;2023-02-15T06:29:20;49.67;;;26.23;;
10699;SDS011;5401;41.986;21.452;2023-02-15T06:31:47;45.33;;;25.57;;
10699;SDS011;5401;41.986;21.452;2023-02-15T06:34:16;54.60;;;29.20;;
10699;SDS011;5401;41.986;21.452;2023-02-15T06:36:44;46.53;;;25.80;;
10699;SDS011;5401;41.986;21.452;2023-02-15T06:39:11;49.50;;;28.40;;
10699;SDS011;5401;41.986;21.452;2023-02-15T06:41:39;68.47;;;32.90;;
10699;SDS011;5401;41.986;21.452;2023-02-15T06:44:06;81.47;;;38.73;;
10699;SDS011;5401;41.986;21.452;2023-02-15T06:46:34;55.60;;;32.53;;
10699;SDS011;5401;41.986;21.452;2023-02-15T06:49:02;61.03;;;30.20;;
10699;SDS011;5401;41.986;21.452;2023-02-15T06:51:31;77.47;;;37.03;;
10699;SDS011;5401;41.986;21.452;2023-02-15T06:53:59;66.90;;;33.07;;
10699;SDS011;5401;41.986;21.452;2023-02-15T06:56:27;62.33;;;29.83;;
10699;SDS011;5401;41.986;21.452;2023-02-15T06:58:54;67.20;;;33.40;;
10699;SDS011;5401;41.986;21.452;2023-02-15T07:01:22;54.50;;;29.47;;
10699;SDS011;5401;41.986;21.452;2023-02-15T07:03:49;51.00;;;28.17;;
10699;SDS011;5401;41.986;21.452;2023-02-15T07:06:17;57.93;;;29.27;;
10699;SDS011;5401;41.986;21.452;2023-02-15T07:08:46;55.03;;;30.40;;
10699;SDS011;5401;41.986;21.452;2023-02-15T07:11:14;51.90;;;29.43;;
10699;SDS011;5401;41.986;21.452;2023-02-15T07:13:58;67.33;;;33.93;;
10699;SDS011;5401;41.986;21.452;2023-02-15T07:16:26;67.57;;;32.43;;
10699;SDS011;5401;41.986;21.452;2023-02-15T07:18:54;57.63;;;30.47;;
10699;SDS011;5401;41.986;21.452;2023-02-15T07:21:22;82.80;;;34.77;;
10699;SDS011;5401;41.986;21.452;2023-02-15T07:23:51;67.93;;;35.23;;
10699;SDS011;5401;41.986;21.452;2023-02-15T07:26:19;59.87;;;31.53;;
10699;SDS011;5401;41.986;21.452;2023-02-15T07:28:47;62.80;;;32.37;;
10699;SDS011;5401;41.986;21.452;2023-02-15T07:31:14;83.60;;;36.50;;
10699;SDS011;5401;41.986;21.452;2023-02-15T07:33:42;65.67;;;34.63;;
10699;SDS011;5401;41.986;21.452;2023-02-15T07:36:10;70.57;;;34.97;;
10699;SDS011;5401;41.986;21.452;2023-02-15T07:38:38;94.87;;;41.40;;
10699;SDS011;5401;41.986;21.452;2023-02-15T07:41:09;78.83;;;36.03;;
10699;SDS011;5401;41.986;21.452;2023-02-15T07:43:39;70.10;;;36.10;;
10699;SDS011;5401;41.986;21.452;2023-02-15T07:46:08;90.40;;;39.23;;
10699;SDS011;5401;41.986;21.452;2023-02-15T07:48:38;57.77;;;32.90;;
10699;SDS011;5401;41.986;21.452;2023-02-15T07:51:07;70.17;;;34.87;;
10699;SDS011;5401;41.986;21.452;2023-02-15T07:53:37;80.80;;;37.73;;
10699;SDS011;5401;41.986;21.452;2023-02-15T07:56:06;82.07;;;37.93;;
10699;SDS011;5401;41.986;21.452;2023-02-15T07:58:37;84.33;;;36.70;;
10699;SDS011;5401;41.986;21.452;2023-02-15T08:01:22;56.53;;;26.10;;
10699;SDS011;5401;41.986;21.452;2023-02-15T08:03:51;71.60;;;29.60;;
10699;SDS011;5401;41.986;21.452;2023-02-15T08:06:19;63.37;;;24.77;;
10699;SDS011;5401;41.986;21.452;2023-02-15T08:08:48;51.63;;;20.67;;
10699;SDS011;5401;41.986;21.452;2023-02-15T08:11:19;31.97;;;15.73;;
10699;SDS011;5401;41.986;21.452;2023-02-15T08:14:00;34.97;;;18.10;;
10699;SDS011;5401;41.986;21.452;2023-02-15T08:16:30;23.10;;;14.87;;
10699;SDS011;5401;41.986;21.452;2023-02-15T08:19:00;29.10;;;14.90;;
10699;SDS011;5401;41.986;21.452;2023-02-15T08:21:30;27.73;;;15.40;;
10699;SDS011;5401;41.986;21.452;2023-02-15T08:23:58;21.80;;;13.80;;
10699;SDS011;5401;41.986;21.452;2023-02-15T08:26:27;32.37;;;15.63;;
10699;SDS011;5401;41.986;21.452;2023-02-15T08:28:55;39.10;;;19.27;;
10699;SDS011;5401;41.986;21.452;2023-02-15T08:31:25;44.97;;;15.20;;
10699;SDS011;5401;41.986;21.452;2023-02-15T08:33:53;15.07;;;11.53;;
10699;SDS011;5401;41.986;21.452;2023-02-15T08:36:23;24.53;;;14.17;;
10699;SDS011;5401;41.986;21.452;2023-02-15T08:38:52;18.97;;;10.93;;
10699;SDS011;5401;41.986;21.452;2023-02-15T08:41:21;20.10;;;12.47;;
10699;SDS011;5401;41.986;21.452;2023-02-15T08:43:52;33.37;;;15.63;;
10699;SDS011;5401;41.986;21.452;2023-02-15T08:46:21;27.03;;;11.00;;
10699;SDS011;5401;41.986;21.452;2023-02-15T08:48:52;28.10;;;11.10;;
10699;SDS011;5401;41.986;21.452;2023-02-15T08:51:20;27.33;;;14.30;;
10699;SDS011;5401;41.986;21.452;2023-02-15T08:53:50;17.23;;;10.27;;
10699;SDS011;5401;41.986;21.452;2023-02-15T08:56:21;21.73;;;10.47;;
10699;SDS011;5401;41.986;21.452;2023-02-15T08:58:50;24.90;;;13.87;;
10699;SDS011;5401;41.986;21.452;2023-02-15T09:01:19;15.13;;;10.10;;
10699;SDS011;5401;41.986;21.452;2023-02-15T09:03:48;17.23;;;10.17;;
10699;SDS011;5401;41.986;21.452;2023-02-15T09:06:20;29.93;;;13.30;;
10699;SDS011;5401;41.986;21.452;2023-02-15T09:08:50;17.20;;;10.50;;
10699;SDS011;5401;41.986;21.452;2023-02-15T09:11:22;15.83;;;11.10;;
10699;SDS011;5401;41.986;21.452;2023-02-15T09:13:52;25.10;;;14.70;;
10699;SDS011;5401;41.986;21.452;2023-02-15T09:16:21;18.40;;;10.83;;
10699;SDS011;5401;41.986;21.452;2023-02-15T09:18:50;14.03;;;9.53;;
10699;SDS011;5401;41.986;21.452;2023-02-15T09:21:22;28.70;;;14.13;;
10699;SDS011;5401;41.986;21.452;2023-02-15T09:23:55;19.20;;;10.67;;
10699;SDS011;5401;41.986;21.452;2023-02-15T09:26:25;15.27;;;10.03;;
10699;SDS011;5401;41.986;21.452;2023-02-15T09:28:55;23.27;;;13.70;;
10699;SDS011;5401;41.986;21.452;2023-02-15T09:31:24;16.73;;;10.93;;
10699;SDS011;5401;41.986;21.452;2023-02-15T09:33:54;12.50;;;9.43;;
10699;SDS011;5401;41.986;21.452;2023-02-15T09:36:25;28.97;;;13.83;;
10699;SDS011;5401;41.986;21.452;2023-02-15T09:38:55;19.70;;;10.37;;
10699;SDS011;5401;41.986;21.452;2023-02-15T09:41:34;17.73;;;10.53;;
10699;SDS011;5401;41.986;21.452;2023-02-15T09:44:16;12.63;;;8.97;;
10699;SDS011;5401;41.986;21.452;2023-02-15T09:46:59;18.93;;;11.77;;
10699;SDS011;5401;41.986;21.452;2023-02-15T09:49:39;12.80;;;9.77;;
10699;SDS011;5401;41.986;21.452;2023-02-15T09:52:24;16.93;;;11.77;;
10699;SDS011;5401;41.986;21.452;2023-02-15T09:55:14;15.80;;;10.43;;
10699;SDS011;5401;41.986;21.452;2023-02-15T09:57:53;22.13;;;11.63;;
10699;SDS011;5401;41.986;21.452;2023-02-15T10:00:31;15.73;;;10.47;;
10699;SDS011;5401;41.986;21.452;2023-02-15T10:03:18;23.70;;;14.20;;
10699;SDS011;5401;41.986;21.452;2023-02-15T10:06:05;15.53;;;10.97;;
10699;SDS011;5401;41.986;21.452;2023-02-15T10:08:55;19.50;;;10.33;;
10699;SDS011;5401;41.986;21.452;2023-02-15T10:11:33;26.70;;;14.17;;
10699;SDS011;5401;41.986;21.452;2023-02-15T10:14:13;19.30;;;11.67;;
10699;SDS011;5401;41.986;21.452;2023-02-15T10:16:55;21.53;;;13.50;;
10699;SDS011;5401;41.986;21.452;2023-02-15T10:19:31;14.63;;;10.50;;
10699;SDS011;5401;41.986;21.452;2023-02-15T10:22:10;18.47;;;10.17;;
10699;SDS011;5401;41.986;21.452;2023-02-15T10:24:54;18.17;;;11.17;;
10699;SDS011;5401;41.986;21.452;2023-02-15T10:27:42;19.43;;;13.57;;
10699;SDS011;5401;41.986;21.452;2023-02-15T10:30:13;17.37;;;11.93;;
10699;SDS011;5401;41.986;21.452;2023-02-15T10:32:46;13.47;;;11.10;;
10699;SDS011;5401;41.986;21.452;2023-02-15T10:35:24;15.23;;;11.50;;
10699;SDS011;5401;41.986;21.452;2023-02-15T10:38:11;16.90;;;10.90;;
10699;SDS011;5401;41.986;21.452;2023-02-15T10:40:54;14.73;;;10.83;;
10699;SDS011;5401;41.986;21.452;2023-02-15T10:43:44;19.90;;;10.83;;
10699;SDS011;5401;41.986;21.452;2023-02-15T10:46:27;21.63;;;11.80;;
10699;SDS011;5401;41.986;21.452;2023-02-15T10:49:20;15.67;;;11.53;;
10699;SDS011;5401;41.986;21.452;2023-02-15T10:52:05;15.27;;;10.33;;
10699;SDS011;5401;41.986;21.452;2023-02-15T10:54:45;19.20;;;12.33;;
10699;SDS011;5401;41.986;21.452;2023-02-15T10:57:21;17.40;;;11.70;;
10699;SDS011;5401;41.986;21.452;2023-02-15T10:59:57;25.20;;;13.13;;
10699;SDS011;5401;41.986;21.452;2023-02-15T11:02:35;15.10;;;11.23;;
10699;SDS011;5401;41.986;21.452;2023-02-15T11:05:18;13.33;;;10.63;;
10699;SDS011;5401;41.986;21.452;2023-02-15T11:07:56;16.17;;;10.83;;
10699;SDS011;5401;41.986;21.452;2023-02-15T11:10:28;22.73;;;14.60;;
10699;SDS011;5401;41.986;21.452;2023-02-15T11:13:02;17.37;;;12.40;;
10699;SDS011;5401;41.986;21.452;2023-02-15T11:15:36;17.13;;;12.70;;
10699;SDS011;5401;41.986;21.452;2023-02-15T11:18:11;19.60;;;12.13;;
10699;SDS011;5401;41.986;21.452;2023-02-15T11:20:42;18.30;;;11.30;;
10699;SDS011;5401;41.986;21.452;2023-02-15T11:23:16;22.03;;;13.73;;
10699;SDS011;5401;41.986;21.452;2023-02-15T11:25:45;15.97;;;12.23;;
10699;SDS011;5401;41.986;21.452;2023-02-15T11:28:22;16.90;;;11.77;;
10699;SDS011;5401;41.986;21.452;2023-02-15T11:30:55;23.33;;;13.83;;
10699;SDS011;5401;41.986;21.452;2023-02-15T11:33:26;18.30;;;12.03;;
10699;SDS011;5401;41.986;21.452;2023-02-15T11:35:59;23.23;;;12.97;;
10699;SDS011;5401;41.986;21.452;2023-02-15T11:38:32;14.30;;;10.93;;
10699;SDS011;5401;41.986;21.452;2023-02-15T11:41:02;15.83;;;11.67;;
10699;SDS011;5401;41.986;21.452;2023-02-15T11:43:41;27.77;;;16.17;;
10699;SDS011;5401;41.986;21.452;2023-02-15T11:46:17;21.07;;;13.47;;
10699;SDS011;5401;41.986;21.452;2023-02-15T11:48:46;16.47;;;11.87;;
10699;SDS011;5401;41.986;21.452;2023-02-15T11:51:16;20.67;;;13.83;;
10699;SDS011;5401;41.986;21.452;2023-02-15T11:53:49;18.27;;;12.03;;
10699;SDS011;5401;41.986;21.452;2023-02-15T11:56:18;25.03;;;12.93;;
10699;SDS011;5401;41.986;21.452;2023-02-15T11:58:50;18.63;;;12.53;;
10699;SDS011;5401;41.986;21.452;2023-02-15T12:01:24;11.93;;;10.60;;
10699;SDS011;5401;41.986;21.452;2023-02-15T12:03:57;14.20;;;10.37;;
10699;SDS011;5401;41.986;21.452;2023-02-15T12:06:32;12.30;;;11.00;;
10699;SDS011;5401;41.986;21.452;2023-02-15T12:09:06;14.77;;;10.33;;
10699;SDS011;5401;41.986;21.452;2023-02-15T12:11:46;18.80;;;11.23;;
10699;SDS011;5401;41.986;21.452;2023-02-15T12:14:22;15.60;;;11.63;;
10699;SDS011;5401;41.986;21.452;2023-02-15T12:16:56;18.70;;;12.17;;
10699;SDS011;5401;41.986;21.452;2023-02-15T12:19:28;13.90;;;10.80;;
10699;SDS011;5401;41.986;21.452;2023-02-15T12:21:59;14.37;;;11.03;;
10699;SDS011;5401;41.986;21.452;2023-02-15T12:24:32;15.37;;;11.30;;
10699;SDS011;5401;41.986;21.452;2023-02-15T12:27:04;16.60;;;11.40;;
10699;SDS011;5401;41.986;21.452;2023-02-15T12:29:46;23.77;;;11.60;;
10699;SDS011;5401;41.986;21.452;2023-02-15T12:32:18;15.67;;;12.00;;
10699;SDS011;5401;41.986;21.452;2023-02-15T12:35:06;13.33;;;10.30;;
10699;SDS011;5401;41.986;21.452;2023-02-15T12:37:44;20.03;;;14.93;;
10699;SDS011;5401;41.986;21.452;2023-02-15T12:40:21;14.00;;;11.00;;
10699;SDS011;5401;41.986;21.452;2023-02-15T12:42:51;15.00;;;12.10;;
10699;SDS011;5401;41.986;21.452;2023-02-15T12:45:23;13.60;;;11.40;;
10699;SDS011;5401;41.986;21.452;2023-02-15T12:48:08;13.00;;;11.23;;
10699;SDS011;5401;41.986;21.452;2023-02-15T12:50:42;15.13;;;11.57;;
10699;SDS011;5401;41.986;21.452;2023-02-15T12:53:16;14.97;;;11.73;;
10699;SDS011;5401;41.986;21.452;2023-02-15T12:55:49;13.37;;;11.90;;
10699;SDS011;5401;41.986;21.452;2023-02-15T12:58:20;15.63;;;11.50;;
10699;SDS011;5401;41.986;21.452;2023-02-15T13:01:03;19.33;;;12.87;;
10699;SDS011;5401;41.986;21.452;2023-02-15T13:03:40;19.13;;;12.70;;
10699;SDS011;5401;41.986;21.452;2023-02-15T13:06:29;14.93;;;12.43;;
10699;SDS011;5401;41.986;21.452;2023-02-15T13:09:05;15.50;;;12.17;;
10699;SDS011;5401;41.986;21.452;2023-02-15T13:11:43;17.20;;;12.70;;
10699;SDS011;5401;41.986;21.452;2023-02-15T13:14:16;20.30;;;12.43;;
10699;SDS011;5401;41.986;21.452;2023-02-15T13:16:50;17.37;;;11.77;;
10699;SDS011;5401;41.986;21.452;2023-02-15T13:19:22;16.03;;;12.13;;
10699;SDS011;5401;41.986;21.452;2023-02-15T13:21:55;18.23;;;11.80;;
10699;SDS011;5401;41.986;21.452;2023-02-15T13:24:26;15.83;;;12.77;;
10699;SDS011;5401;41.986;21.452;2023-02-15T13:26:56;14.00;;;11.97;;
10699;SDS011;5401;41.986;21.452;2023-02-15T13:29:26;17.50;;;12.70;;
10699;SDS011;5401;41.986;21.452;2023-02-15T13:31:58;16.73;;;12.40;;
10699;SDS011;5401;41.986;21.452;2023-02-15T13:34:34;15.27;;;11.73;;
10699;SDS011;5401;41.986;21.452;2023-02-15T13:37:07;14.73;;;12.70;;
10699;SDS011;5401;41.986;21.452;2023-02-15T13:39:42;15.53;;;13.43;;
10699;SDS011;5401;41.986;21.452;2023-02-15T13:42:17;16.27;;;12.13;;
10699;SDS011;5401;41.986;21.452;2023-02-15T13:44:58;20.57;;;13.43;;
10699;SDS011;5401;41.986;21.452;2023-02-15T13:47:40;20.03;;;13.87;;
10699;SDS011;5401;41.986;21.452;2023-02-15T13:50:20;16.83;;;11.53;;
10699;SDS011;5401;41.986;21.452;2023-02-15T13:53:02;19.10;;;11.80;;
10699;SDS011;5401;41.986;21.452;2023-02-15T13:55:46;19.80;;;13.63;;
10699;SDS011;5401;41.986;21.452;2023-02-15T13:58:26;33.63;;;12.80;;
10699;SDS011;5401;41.986;21.452;2023-02-15T14:01:14;20.83;;;12.83;;
10699;SDS011;5401;41.986;21.452;2023-02-15T14:04:09;15.40;;;12.30;;
10699;SDS011;5401;41.986;21.452;2023-02-15T14:09:59;17.13;;;13.67;;
10699;SDS011;5401;41.986;21.452;2023-02-15T14:12:43;15.47;;;12.13;;
10699;SDS011;5401;41.986;21.452;2023-02-15T14:15:26;18.43;;;12.83;;
10699;SDS011;5401;41.986;21.452;2023-02-15T14:18:14;15.73;;;13.57;;
10699;SDS011;5401;41.986;21.452;2023-02-15T14:20:54;18.93;;;12.60;;
10699;SDS011;5401;41.986;21.452;2023-02-15T14:23:35;18.40;;;12.80;;
10699;SDS011;5401;41.986;21.452;2023-02-15T14:26:12;16.83;;;12.70;;
10699;SDS011;5401;41.986;21.452;2023-02-15T14:28:48;20.13;;;13.30;;
10699;SDS011;5401;41.986;21.452;2023-02-15T14:31:26;27.00;;;13.80;;
10699;SDS011;5401;41.986;21.452;2023-02-15T14:33:58;17.27;;;12.60;;
10699;SDS011;5401;41.986;21.452;2023-02-15T14:36:27;16.70;;;12.03;;
10699;SDS011;5401;41.986;21.452;2023-02-15T14:39:00;14.33;;;12.37;;
10699;SDS011;5401;41.986;21.452;2023-02-15T14:42:02;19.53;;;12.33;;
10699;SDS011;5401;41.986;21.452;2023-02-15T14:44:37;18.63;;;12.87;;
10699;SDS011;5401;41.986;21.452;2023-02-15T14:47:10;13.33;;;11.23;;
10699;SDS011;5401;41.986;21.452;2023-02-15T14:49:43;23.83;;;13.73;;
10699;SDS011;5401;41.986;21.452;2023-02-15T14:52:14;17.57;;;12.83;;
10699;SDS011;5401;41.986;21.452;2023-02-15T14:54:55;16.87;;;13.43;;
10699;SDS011;5401;41.986;21.452;2023-02-15T14:57:30;26.43;;;16.03;;
10699;SDS011;5401;41.986;21.452;2023-02-15T15:00:02;22.77;;;15.80;;
10699;SDS011;5401;41.986;21.452;2023-02-15T15:02:51;26.73;;;16.37;;